createdAt,value
2018-06-29T00:00:02.900Z,66.86
2018-06-29T00:02:31.793Z,67.13
2018-06-29T00:05:00.123Z,67.45
2018-06-29T00:07:27.860Z,68.03
2018-06-29T00:09:56.167Z,68.76
2018-06-29T00:12:25.074Z,69.24
2018-06-29T00:14:53.413Z,69.66
2018-06-29T00:17:21.730Z,69.88
2018-06-29T00:19:50.049Z,69.90
2018-06-29T00:22:18.364Z,70.12
2018-06-29T00:24:46.846Z,70.35
2018-06-29T00:27:15.170Z,70.49
2018-06-29T00:29:42.926Z,70.74
2018-06-29T00:32:11.827Z,70.58
2018-06-29T00:34:40.162Z,71.13
2018-06-29T00:37:08.493Z,70.97
2018-06-29T00:39:36.816Z,71.06
2018-06-29T00:42:04.577Z,70.39
2018-06-29T00:44:33.480Z,69.87
2018-06-29T00:47:01.816Z,69.77
2018-06-29T00:49:29.566Z,68.77
2018-06-29T00:51:57.897Z,68.06
2018-06-29T00:54:27.939Z,67.72
2018-06-29T00:56:55.240Z,67.80
2018-06-29T00:59:23.582Z,67.91
2018-06-29T01:01:51.921Z,67.95
2018-06-29T01:04:19.782Z,67.80
2018-06-29T01:06:48.571Z,67.59
2018-06-29T01:09:16.891Z,67.81
2018-06-29T01:11:44.626Z,68.43
2018-06-29T01:14:13.537Z,68.91
2018-06-29T01:16:41.859Z,69.62
2018-06-29T01:19:10.172Z,69.96
2018-06-29T01:21:38.540Z,70.15
2018-06-29T01:24:06.961Z,70.39
2018-06-29T01:26:34.737Z,70.51
2018-06-29T01:29:03.063Z,69.59
2018-06-29T01:31:31.365Z,68.43
2018-06-29T01:34:00.264Z,67.95
2018-06-29T01:36:28.001Z,67.73
2018-06-29T01:38:56.892Z,67.79
2018-06-29T01:41:25.258Z,68.59
2018-06-29T01:43:53.778Z,69.26
2018-06-29T01:46:22.093Z,69.60
2018-06-29T01:48:49.850Z,69.34
2018-06-29T01:51:18.735Z,68.26
2018-06-29T01:53:46.485Z,67.87
2018-06-29T01:56:14.799Z,67.77
2018-06-29T01:58:43.472Z,67.99
2018-06-29T02:01:13.145Z,68.05
2018-06-29T02:03:40.886Z,67.75
2018-06-29T02:06:09.779Z,67.32
2018-06-29T02:08:39.086Z,66.92
2018-06-29T02:11:07.399Z,66.84
2018-06-29T02:13:35.708Z,66.72
2018-06-29T02:16:04.097Z,66.59
2018-06-29T02:18:32.415Z,66.99
2018-06-29T02:21:00.153Z,66.98
2018-06-29T02:23:29.044Z,66.80
2018-06-29T02:25:57.376Z,66.65
2018-06-29T02:28:25.722Z,66.96
2018-06-29T02:30:53.582Z,68.02
2018-06-29T02:33:21.854Z,68.80
2018-06-29T02:35:50.752Z,68.97
2018-06-29T02:38:19.074Z,68.49
2018-06-29T02:40:47.097Z,67.82
2018-06-29T02:43:15.120Z,67.34
2018-06-29T02:45:43.634Z,67.33
2018-06-29T02:48:12.331Z,67.30
2018-06-29T02:50:40.062Z,67.33
2018-06-29T02:53:08.957Z,67.10
2018-06-29T02:55:37.272Z,66.85
2018-06-29T02:58:05.020Z,66.45
2018-06-29T03:00:33.336Z,66.37
2018-06-29T03:03:02.233Z,66.28
2018-06-29T03:05:30.556Z,66.18
2018-06-29T03:07:58.286Z,65.99
2018-06-29T03:10:26.604Z,65.99
2018-06-29T03:12:54.925Z,65.80
2018-06-29T03:15:23.242Z,65.65
2018-06-29T03:17:51.569Z,65.60
2018-06-29T03:20:20.232Z,65.54
2018-06-29T03:22:48.881Z,65.46
2018-06-29T03:25:16.624Z,65.48
2018-06-29T03:27:44.930Z,65.33
2018-06-29T03:30:13.287Z,65.22
2018-06-29T03:32:42.186Z,65.11
2018-06-29T03:35:10.496Z,65.10
2018-06-29T03:37:38.236Z,64.98
2018-06-29T03:40:06.562Z,64.83
2018-06-29T03:42:34.902Z,64.52
2018-06-29T03:45:03.790Z,64.43
2018-06-29T03:47:32.106Z,64.29
2018-06-29T03:50:00.437Z,64.28
2018-06-29T03:52:28.753Z,64.18
2018-06-29T03:54:57.072Z,63.70
2018-06-29T03:57:24.809Z,63.49
2018-06-29T03:59:53.708Z,63.11
2018-06-29T04:02:22.028Z,62.73
2018-06-29T04:04:50.349Z,62.36
2018-06-29T04:07:18.091Z,61.45
2018-06-29T04:09:47.003Z,61.26
2018-06-29T04:12:15.320Z,60.51
2018-06-29T04:14:43.053Z,60.22
2018-06-29T04:17:11.368Z,60.21
2018-06-29T04:19:39.681Z,60.21
2018-06-29T04:22:08.580Z,60.23
2018-06-29T04:24:36.315Z,60.27
2018-06-29T04:27:04.626Z,60.58
2018-06-29T04:29:32.937Z,60.67
2018-06-29T04:32:01.866Z,60.68
2018-06-29T04:34:30.173Z,60.34
2018-06-29T04:36:57.916Z,60.32
2018-06-29T04:39:26.816Z,60.13
2018-06-29T04:41:54.559Z,60.09
2018-06-29T04:44:22.866Z,59.99
2018-06-29T04:46:51.766Z,60.06
2018-06-29T04:49:19.522Z,60.22
2018-06-29T04:51:48.392Z,60.16
2018-06-29T04:54:16.697Z,60.52
2018-06-29T04:56:44.497Z,61.05
2018-06-29T04:59:13.372Z,61.36
2018-06-29T05:01:41.136Z,61.52
2018-06-29T05:04:09.956Z,62.09
2018-06-29T05:06:37.711Z,62.35
2018-06-29T05:09:06.612Z,62.19
2018-06-29T05:11:34.339Z,62.15
2018-06-29T05:14:02.655Z,62.10
2018-06-29T05:16:31.559Z,62.33
2018-06-29T05:19:07.726Z,62.31
2018-06-29T05:21:36.274Z,62.59
2018-06-29T05:24:04.991Z,62.50
2018-06-29T05:26:33.289Z,62.52
2018-06-29T05:29:01.037Z,62.45
2018-06-29T05:31:29.948Z,62.81
2018-06-29T05:33:58.301Z,62.91
2018-06-29T05:36:26.056Z,62.87
2018-06-29T05:38:54.376Z,62.72
2018-06-29T05:41:23.281Z,63.01
2018-06-29T05:43:51.581Z,63.40
2018-06-29T05:46:19.966Z,63.21
2018-06-29T05:48:48.248Z,63.33
2018-06-29T05:51:16.557Z,63.56
2018-06-29T05:53:44.849Z,63.62
2018-06-29T05:56:12.610Z,63.47
2018-06-29T05:58:40.925Z,63.22
2018-06-29T06:01:09.243Z,62.99
2018-06-29T06:03:38.162Z,62.61
2018-06-29T06:06:05.897Z,62.40
2018-06-29T06:08:34.220Z,62.44
2018-06-29T06:11:03.117Z,62.50
2018-06-29T06:13:30.859Z,62.30
2018-06-29T06:15:59.801Z,62.40
2018-06-29T06:18:28.070Z,62.35
2018-06-29T06:20:55.888Z,62.28
2018-06-29T06:23:24.700Z,62.20
2018-06-29T06:25:52.439Z,62.05
2018-06-29T06:28:20.770Z,62.07
2018-06-29T06:30:49.087Z,61.91
2018-06-29T06:33:17.980Z,61.74
2018-06-29T06:35:46.321Z,61.62
2018-06-29T06:38:14.056Z,61.40
2018-06-29T06:40:42.959Z,61.12
2018-06-29T06:43:11.336Z,60.94
2018-06-29T06:45:39.659Z,60.68
2018-06-29T06:48:07.992Z,60.17
2018-06-29T06:50:36.332Z,59.95
2018-06-29T06:53:04.646Z,59.31
2018-06-29T06:55:32.396Z,59.25
2018-06-29T06:58:00.710Z,58.97
2018-06-29T07:00:29.613Z,58.89
2018-06-29T07:02:57.371Z,59.18
2018-06-29T07:05:26.257Z,59.04
2018-06-29T07:07:54.573Z,59.30
2018-06-29T07:10:22.892Z,59.34
2018-06-29T07:12:51.277Z,59.51
2018-06-29T07:15:18.959Z,59.61
2018-06-29T07:17:47.858Z,59.86
2018-06-29T07:20:15.596Z,59.84
2018-06-29T07:22:44.500Z,59.69
2018-06-29T07:25:12.818Z,60.29
2018-06-29T07:27:41.142Z,60.82
2018-06-29T07:30:09.492Z,61.18
2018-06-29T07:32:37.795Z,61.35
2018-06-29T07:35:05.537Z,61.61
2018-06-29T07:37:33.887Z,62.00
2018-06-29T07:40:02.790Z,62.64
2018-06-29T07:42:30.542Z,62.98
2018-06-29T07:44:59.456Z,63.34
2018-06-29T07:47:27.776Z,63.35
2018-06-29T07:49:56.097Z,63.49
2018-06-29T07:52:23.834Z,63.70
2018-06-29T07:54:52.158Z,64.01
2018-06-29T07:57:21.049Z,64.13
2018-06-29T07:59:48.801Z,64.21
2018-06-29T08:02:17.109Z,64.14
2018-06-29T08:04:46.011Z,64.16
2018-06-29T08:07:13.747Z,64.35
2018-06-29T08:09:42.061Z,64.41
2018-06-29T08:12:10.964Z,64.51
2018-06-29T08:14:39.968Z,64.60
2018-06-29T08:17:07.701Z,64.66
2018-06-29T08:19:36.015Z,64.85
2018-06-29T08:22:04.733Z,64.61
2018-06-29T08:24:32.685Z,64.62
2018-06-29T08:27:00.999Z,64.77
2018-06-29T08:29:29.904Z,64.39
2018-06-29T08:31:58.217Z,64.39
2018-06-29T08:34:25.984Z,64.41
2018-06-29T08:36:54.837Z,64.24
2018-06-29T08:39:23.787Z,64.35
2018-06-29T08:41:52.096Z,64.45
2018-06-29T08:44:20.027Z,64.23
2018-06-29T08:46:48.809Z,64.51
2018-06-29T08:49:17.376Z,64.64
2018-06-29T08:51:45.701Z,64.52
2018-06-29T08:54:13.436Z,64.43
2018-06-29T08:56:42.350Z,64.21
2018-06-29T08:59:10.670Z,63.83
2018-06-29T09:01:40.871Z,63.91
2018-06-29T09:04:07.880Z,64.05
2018-06-29T09:06:35.613Z,64.36
2018-06-29T09:09:05.115Z,64.46
2018-06-29T09:11:32.271Z,64.33
2018-06-29T09:14:00.596Z,64.20
2018-06-29T09:16:28.921Z,64.12
2018-06-29T09:18:57.428Z,63.97
2018-06-29T09:21:26.126Z,63.85
2018-06-29T09:23:54.452Z,63.73
2018-06-29T09:26:22.526Z,63.80
2018-06-29T09:28:51.433Z,63.78
2018-06-29T09:31:19.164Z,63.90
2018-06-29T09:33:47.474Z,63.81
2018-06-29T09:36:16.418Z,63.79
2018-06-29T09:38:44.689Z,63.38
2018-06-29T09:41:13.032Z,63.21
2018-06-29T09:43:41.364Z,63.02
2018-06-29T09:46:09.687Z,63.00
2018-06-29T09:48:38.019Z,63.01
2018-06-29T09:51:06.356Z,63.32
2018-06-29T09:53:34.093Z,63.01
2018-06-29T09:56:03.223Z,62.64
2018-06-29T09:58:31.319Z,62.35
2018-06-29T10:00:59.084Z,62.02
2018-06-29T10:03:27.948Z,62.48
2018-06-29T10:05:55.696Z,62.54
2018-06-29T10:08:24.074Z,62.42
2018-06-29T10:10:52.973Z,62.50
2018-06-29T10:13:21.287Z,62.40
2018-06-29T10:15:49.609Z,62.10
2018-06-29T10:18:17.962Z,61.75
2018-06-29T10:20:46.284Z,61.67
2018-06-29T10:23:14.016Z,61.58
2018-06-29T10:25:42.347Z,61.25
2018-06-29T10:28:11.340Z,61.14
2018-06-29T10:30:39.578Z,61.02
2018-06-29T10:33:07.932Z,61.07
2018-06-29T10:35:36.528Z,60.87
2018-06-29T10:38:04.832Z,60.91
2018-06-29T10:40:32.575Z,60.65
2018-06-29T10:43:01.527Z,60.67
2018-06-29T10:45:29.334Z,60.60
2018-06-29T10:47:58.243Z,60.07
2018-06-29T10:50:26.568Z,59.94
2018-06-29T10:52:54.379Z,59.46
2018-06-29T10:55:23.299Z,59.19
2018-06-29T10:57:51.634Z,58.62
2018-06-29T11:00:20.220Z,58.00
2018-06-29T11:02:48.776Z,58.15
2018-06-29T11:05:17.690Z,58.26
2018-06-29T11:07:45.705Z,58.38
2018-06-29T11:10:13.936Z,58.29
2018-06-29T11:12:42.261Z,58.35
2018-06-29T11:15:16.143Z,58.44
2018-06-29T11:17:43.904Z,58.73
2018-06-29T11:20:12.223Z,58.92
2018-06-29T11:22:41.167Z,59.19
2018-06-29T11:25:09.693Z,59.23
2018-06-29T11:27:37.967Z,58.92
2018-06-29T11:30:06.923Z,58.71
2018-06-29T11:32:36.190Z,58.70
2018-06-29T11:35:04.216Z,58.32
2018-06-29T11:37:32.777Z,58.21
2018-06-29T11:40:01.104Z,57.98
2018-06-29T11:42:30.146Z,57.72
2018-06-29T11:44:58.423Z,57.26
2018-06-29T11:47:26.902Z,56.74
2018-06-29T11:49:54.645Z,56.44
2018-06-29T11:52:22.966Z,56.45
2018-06-29T11:54:53.536Z,56.29
2018-06-29T11:57:22.983Z,55.83
2018-06-29T11:59:51.305Z,55.67
2018-06-29T12:02:19.106Z,55.39
2018-06-29T12:04:48.488Z,54.75
2018-06-29T12:07:16.925Z,54.74
2018-06-29T12:10:01.361Z,53.82
2018-06-29T12:15:26.753Z,53.78
2018-06-29T12:17:59.444Z,54.10
2018-06-29T12:20:30.406Z,54.03
2018-06-29T12:23:00.935Z,53.45
2018-06-29T12:25:30.188Z,53.41
2018-06-29T12:28:00.708Z,53.28
2018-06-29T12:30:29.837Z,53.28
2018-06-29T12:32:58.183Z,53.18
2018-06-29T12:35:26.503Z,53.59
2018-06-29T12:37:54.299Z,53.19
2018-06-29T12:40:23.166Z,52.53
2018-06-29T12:42:51.472Z,52.78
2018-06-29T12:45:19.242Z,52.70
2018-06-29T12:47:47.570Z,52.58
2018-06-29T12:50:15.890Z,52.31
2018-06-29T12:52:44.203Z,52.24
2018-06-29T12:55:13.114Z,51.91
2018-06-29T12:57:40.861Z,52.11
2018-06-29T13:00:09.649Z,52.17
2018-06-29T13:02:40.371Z,51.96
2018-06-29T13:05:08.120Z,51.94
2018-06-29T13:07:37.019Z,51.74
2018-06-29T13:10:05.339Z,51.34
2018-06-29T13:12:33.653Z,50.98
2018-06-29T13:15:01.970Z,51.05
2018-06-29T13:17:30.299Z,50.87
2018-06-29T13:19:59.071Z,51.26
2018-06-29T13:22:27.468Z,51.53
2018-06-29T13:24:55.311Z,51.45
2018-06-29T13:27:24.109Z,51.45
2018-06-29T13:29:52.436Z,51.20
2018-06-29T13:32:20.176Z,50.93
2018-06-29T13:34:48.496Z,50.74
2018-06-29T13:37:17.408Z,50.69
2018-06-29T13:39:45.143Z,51.03
2018-06-29T13:42:17.855Z,51.24
2018-06-29T13:44:45.211Z,51.28
2018-06-29T13:47:12.969Z,50.98
2018-06-29T13:49:41.910Z,50.41
2018-06-29T13:52:09.654Z,50.02
2018-06-29T13:54:38.780Z,49.99
2018-06-29T13:57:06.878Z,49.95
2018-06-29T13:59:35.200Z,49.46
2018-06-29T14:02:03.518Z,48.92
2018-06-29T14:04:31.841Z,47.49
2018-06-29T14:07:00.161Z,46.75
2018-06-29T14:09:28.479Z,46.94
2018-06-29T14:11:56.512Z,46.62
2018-06-29T14:14:24.553Z,46.58
2018-06-29T14:16:53.458Z,47.22
2018-06-29T14:19:21.194Z,46.86
2018-06-29T14:21:50.098Z,46.53
2018-06-29T14:24:21.305Z,46.14
2018-06-29T14:26:47.479Z,46.50
2018-06-29T14:29:15.791Z,46.67
2018-06-29T14:31:44.113Z,46.50
2018-06-29T14:34:12.434Z,46.44
2018-06-29T14:36:40.186Z,46.42
2018-06-29T14:39:09.090Z,46.80
2018-06-29T14:41:36.846Z,46.78
2018-06-29T14:44:05.745Z,46.19
2018-06-29T14:46:33.496Z,46.14
2018-06-29T14:49:02.550Z,46.15
2018-06-29T14:51:30.863Z,45.84
2018-06-29T14:53:59.181Z,44.75
2018-06-29T14:56:27.498Z,43.53
2018-06-29T14:58:55.849Z,43.09
2018-06-29T15:01:23.609Z,42.16
2018-06-29T15:03:52.747Z,42.18
2018-06-29T15:06:20.488Z,42.10
2018-06-29T15:08:49.392Z,42.66
2018-06-29T15:11:17.127Z,43.16
2018-06-29T15:13:46.033Z,43.70
2018-06-29T15:16:14.349Z,44.32
2018-06-29T15:18:42.690Z,45.28
2018-06-29T15:21:11.002Z,45.89
2018-06-29T15:23:39.407Z,46.52
2018-06-29T15:26:07.141Z,46.67
2018-06-29T15:28:35.464Z,46.44
2018-06-29T15:31:04.372Z,46.63
2018-06-29T15:33:32.094Z,46.89
2018-06-29T15:36:00.423Z,47.01
2018-06-29T15:38:29.324Z,46.29
2018-06-29T15:40:57.652Z,45.32
2018-06-29T15:43:26.005Z,44.96
2018-06-29T15:45:54.322Z,45.40
2018-06-29T15:48:22.722Z,46.07
2018-06-29T15:50:51.225Z,46.64
2018-06-29T15:53:19.528Z,46.88
2018-06-29T15:55:47.914Z,47.26
2018-06-29T15:58:16.224Z,47.66
2018-06-29T16:00:44.601Z,48.36
2018-06-29T16:03:12.945Z,48.49
2018-06-29T16:05:40.792Z,48.53
2018-06-29T16:08:09.694Z,48.35
2018-06-29T16:10:37.429Z,48.57
2018-06-29T16:13:06.436Z,48.99
2018-06-29T16:15:34.972Z,49.08
2018-06-29T16:18:02.728Z,49.27
2018-06-29T16:20:32.949Z,49.64
2018-06-29T16:23:00.690Z,49.48
2018-06-29T16:25:29.479Z,49.42
2018-06-29T16:27:58.474Z,49.53
2018-06-29T16:30:26.391Z,49.79
2018-06-29T16:32:54.553Z,50.01
2018-06-29T16:35:23.476Z,50.24
2018-06-29T16:37:51.801Z,50.05
2018-06-29T16:40:20.381Z,49.28
2018-06-29T16:42:48.743Z,48.62
2018-06-29T16:45:17.799Z,48.09
2018-06-29T16:47:46.137Z,47.41
2018-06-29T16:50:14.463Z,47.88
2018-06-29T16:52:42.227Z,48.52
2018-06-29T16:55:11.135Z,49.00
2018-06-29T16:57:39.444Z,49.35
2018-06-29T17:00:07.822Z,50.03
2018-06-29T17:02:35.571Z,50.20
2018-06-29T17:05:03.946Z,50.42
2018-06-29T17:07:32.836Z,50.68
2018-06-29T17:10:01.244Z,50.60
2018-06-29T17:12:29.633Z,50.58
2018-06-29T17:14:57.951Z,50.89
2018-06-29T17:17:26.297Z,50.86
2018-06-29T17:19:54.727Z,50.89
2018-06-29T17:22:23.009Z,50.89
2018-06-29T17:24:51.336Z,51.11
2018-06-29T17:27:21.420Z,50.83
2018-06-29T17:29:48.675Z,50.61
2018-06-29T17:32:16.992Z,50.15
2018-06-29T17:34:45.673Z,49.10
2018-06-29T17:37:18.784Z,47.92
2018-06-29T17:39:47.328Z,47.76
2018-06-29T17:42:15.682Z,48.02
2018-06-29T17:44:43.429Z,48.52
2018-06-29T17:47:17.839Z,48.38
2018-06-29T17:49:45.573Z,48.69
2018-06-29T17:52:14.506Z,48.65
2018-06-29T17:54:42.850Z,48.48
2018-06-29T17:57:11.429Z,48.32
2018-06-29T17:59:42.749Z,48.72
2018-06-29T18:02:11.174Z,49.45
2018-06-29T18:04:39.496Z,50.31
2018-06-29T18:07:08.597Z,50.48
2018-06-29T18:09:36.714Z,50.52
2018-06-29T18:12:05.253Z,51.08
2018-06-29T18:14:33.581Z,51.62
2018-06-29T18:17:01.335Z,51.92
2018-06-29T18:19:29.654Z,51.86
2018-06-29T18:21:57.985Z,52.04
2018-06-29T18:24:26.320Z,52.17
2018-06-29T18:26:55.214Z,52.14
2018-06-29T18:29:23.617Z,51.86
2018-06-29T18:31:51.957Z,51.54
2018-06-29T18:34:20.293Z,50.86
2018-06-29T18:36:48.820Z,50.58
2018-06-29T18:39:17.101Z,50.81
2018-06-29T18:41:44.842Z,50.92
2018-06-29T18:44:13.755Z,50.68
2018-06-29T18:46:47.414Z,50.49
2018-06-29T18:49:15.740Z,50.29
2018-06-29T18:51:43.493Z,50.12
2018-06-29T18:54:12.397Z,50.09
2018-06-29T18:56:40.767Z,49.77
2018-06-29T18:59:08.619Z,49.47
2018-06-29T19:01:40.753Z,49.41
2018-06-29T19:04:09.069Z,49.66
2018-06-29T19:06:38.570Z,49.73
2018-06-29T19:09:10.096Z,49.78
2018-06-29T19:11:38.443Z,49.91
2018-06-29T19:14:06.794Z,49.98
2018-06-29T19:16:35.146Z,49.99
2018-06-29T19:19:13.541Z,50.27
2018-06-29T19:21:41.889Z,50.51
2018-06-29T19:24:10.284Z,50.71
2018-06-29T19:26:38.598Z,50.76
2018-06-29T19:29:06.918Z,50.73
2018-06-29T19:31:34.688Z,50.76
2018-06-29T19:34:03.712Z,50.72
2018-06-29T19:36:32.090Z,50.94
2018-06-29T19:39:01.015Z,50.92
2018-06-29T19:41:29.302Z,51.00
2018-06-29T19:43:57.644Z,51.11
2018-06-29T19:46:25.387Z,50.95
2018-06-29T19:48:54.301Z,50.87
2018-06-29T19:51:22.116Z,50.92
2018-06-29T19:53:51.013Z,51.12
2018-06-29T19:56:25.238Z,51.08
2018-06-29T19:58:53.729Z,51.05
2018-06-29T20:01:21.426Z,51.17
2018-06-29T20:03:49.746Z,51.43
2018-06-29T20:06:18.763Z,51.36
2018-06-29T20:08:47.113Z,51.16
2018-06-29T20:11:15.982Z,50.53
2018-06-29T20:13:44.280Z,49.81
2018-06-29T20:16:12.615Z,49.62
2018-06-29T20:18:40.952Z,49.83
2018-06-29T20:21:08.695Z,50.25
2018-06-29T20:23:37.618Z,50.71
2018-06-29T20:26:06.120Z,50.89
2018-06-29T20:28:33.850Z,50.89
2018-06-29T20:31:02.759Z,51.10
2018-06-29T20:33:31.123Z,51.31
2018-06-29T20:35:59.495Z,51.08
2018-06-29T20:38:27.824Z,50.97
2018-06-29T20:40:56.181Z,50.88
2018-06-29T20:43:23.995Z,50.56
2018-06-29T20:45:52.898Z,50.26
2018-06-29T20:48:21.228Z,50.23
2018-06-29T20:50:49.537Z,50.55
2018-06-29T20:53:17.859Z,50.60
2018-06-29T20:55:46.668Z,50.61
2018-06-29T20:58:16.953Z,50.90
2018-06-29T21:00:45.060Z,51.10
2018-06-29T21:03:15.528Z,51.42
2018-06-29T21:05:43.853Z,51.74
2018-06-29T21:08:12.204Z,51.89
2018-06-29T21:10:40.581Z,51.98
2018-06-29T21:13:09.013Z,51.91
2018-06-29T21:15:40.076Z,52.08
2018-06-29T21:18:09.598Z,52.24
2018-06-29T21:20:37.545Z,52.22
2018-06-29T21:23:06.471Z,51.91
2018-06-29T21:25:34.792Z,51.44
2018-06-29T21:28:03.121Z,51.15
2018-06-29T21:30:31.446Z,51.20
2018-06-29T21:32:59.179Z,51.45
2018-06-29T21:35:28.078Z,51.71
2018-06-29T21:37:55.814Z,52.04
2018-06-29T21:40:24.711Z,52.21
2018-06-29T21:42:52.529Z,52.58
2018-06-29T21:45:21.356Z,52.74
2018-06-29T21:47:49.095Z,52.85
2018-06-29T21:50:17.992Z,52.97
2018-06-29T21:52:45.768Z,53.09
2018-06-29T21:55:14.632Z,53.21
2018-06-29T21:57:42.956Z,53.00
2018-06-29T22:00:10.705Z,52.33
2018-06-29T22:02:39.637Z,52.01
2018-06-29T22:05:07.957Z,51.97
2018-06-29T22:07:36.278Z,51.94
2018-06-29T22:10:04.602Z,52.03
2018-06-29T22:12:32.917Z,51.95
2018-06-29T22:15:00.690Z,51.96
2018-06-29T22:17:29.011Z,51.95
2018-06-29T22:19:57.438Z,51.89
2018-06-29T22:22:26.349Z,51.96
2018-06-29T22:24:54.650Z,52.18
2018-06-29T22:27:22.405Z,52.20
2018-06-29T22:29:51.299Z,52.33
2018-06-29T22:32:19.726Z,52.60
2018-06-29T22:34:48.030Z,52.75
2018-06-29T22:37:15.787Z,52.77
2018-06-29T22:39:44.107Z,53.01
2018-06-29T22:42:13.012Z,52.94
2018-06-29T22:44:41.325Z,53.11
2018-06-29T22:47:09.660Z,53.35
2018-06-29T22:49:38.131Z,53.40
2018-06-29T22:52:05.873Z,53.29
2018-06-29T22:54:34.456Z,53.41
2018-06-29T22:57:02.781Z,53.71
2018-06-29T22:59:31.100Z,53.95
2018-06-29T23:02:00.186Z,54.00
2018-06-29T23:04:28.413Z,53.71
2018-06-29T23:06:56.150Z,53.84
2018-06-29T23:09:25.053Z,53.53
2018-06-29T23:11:53.374Z,53.65
2018-06-29T23:14:22.482Z,53.69
2018-06-29T23:16:51.031Z,53.84
2018-06-29T23:19:18.534Z,53.82
2018-06-29T23:21:46.847Z,53.99
2018-06-29T23:24:15.750Z,53.93
2018-06-29T23:26:49.304Z,53.84
2018-06-29T23:29:17.416Z,53.78
2018-06-29T23:31:46.703Z,53.79
2018-06-29T23:34:15.539Z,53.74
2018-06-29T23:36:43.275Z,53.71
2018-06-29T23:39:11.860Z,53.69
2018-06-29T23:41:40.561Z,53.59
2018-06-29T23:44:08.883Z,53.41
2018-06-29T23:46:37.208Z,53.09
2018-06-29T23:49:05.526Z,52.90
2018-06-29T23:51:33.841Z,52.44
2018-06-29T23:54:01.596Z,51.76
2018-06-29T23:56:30.042Z,51.55
2018-06-29T23:58:58.934Z,51.04
